Woodland, Pennsylvania
Current Conditions -  °F | °C
As of 3:54 PM on Thursday 23 Oct 2014 (Local Time) from KFIG Reporting Station
Overcast Overcast  
Wind Chill: 60°   Ceiling: 5000
Heat Index: 60°   Visibility: 10mi
Dew Point: 39°   Wind: 10mph
Humidity: 46%   Direction: 340°NNW
Pressure: 29.96"   Gusts: 25mph
Location:  41°N, 78.34°W
Report Text: KFIG 231954Z AUTO 34009G22KT 10SM OVC050 16/04 A2996 RMK AO2 PK WND 01026/1926 SLP148 T01560039
Loading
Personal Weather Stations






























Interactive Weather Map
Tropical Storm Tracking
New forecast layout! Learn more

10-Day Weather Forecast

Advertisements
Track Severe Weather on mobile